WetterOnline ( https://www.wetteronline.de )

Wetter aktuell Gunzenhausen

Aktuelles Wetter: Weißenburg (424m)

6-stündlich | Neueste Meldungen
Ortszeit Temperatur Wetter
So, 18.08. 20:00 23.0° C wolkenlos
So, 18.08. 14:00 27.4° C fast wolkenlos
So, 18.08. 8:00 17.3° C wolkenlos
So, 18.08. 2:00 15.6° C wolkig
Sa, 17.08. 20:00 20.4° C Sprühregen
Sa, 17.08. 14:00 21.9° C wolkig
Sa, 17.08. 8:00 14.5° C bedeckt
Sa, 17.08. 2:00 12.0° C wolkig
Ortszeit Temperatur Wetter
So, 18.08. 23:00 19.2° C bewölkt
So, 18.08. 22:50 19.2° C bewölkt
So, 18.08. 22:40 19.2° C wolkig
So, 18.08. 22:30 19.2° C wolkig
So, 18.08. 22:20 19.2° C wolkig
So, 18.08. 22:10 19.2° C wolkig
So, 18.08. 22:00 19.4° C bewölkt
So, 18.08. 21:30 19.6° C leicht bewölkt
So, 18.08. 21:00 20.4° C leicht bewölkt
So, 18.08. 20:30 21.2° C leicht bewölkt
So, 18.08. 20:00 23.0° C wolkenlos
Ortszeit Relative Feuchte Sichtweite
So, 18.08. 20:00 76% 35 km
So, 18.08. 14:00 50% 17 km
So, 18.08. 8:00 80% 12 km
So, 18.08. 2:00 95% 35 km
Sa, 17.08. 20:00 64% 40 km
Sa, 17.08. 14:00 63% 35 km
Sa, 17.08. 8:00 83% 30 km
Sa, 17.08. 2:00 94% 29 km
Ortszeit Relative Feuchte Sichtweite
So, 18.08. 23:00 98% 19 km
So, 18.08. 22:50 98% -
So, 18.08. 22:40 98% -
So, 18.08. 22:30 98% 14 km
So, 18.08. 22:20 98% -
So, 18.08. 22:10 98% -
So, 18.08. 22:00 98% 13 km
So, 18.08. 21:30 94% 23 km
So, 18.08. 21:00 88% 9 km
So, 18.08. 20:30 87% 27 km
So, 18.08. 20:00 76% 35 km
Ortszeit Niederschlagsmenge Niederschlagsart
So, 18.08. 20:00 0.8 l/m2 in 12 Std. Regen
So, 18.08. 14:00 0.0 l/m2 in 6 Std. -
So, 18.08. 8:00 0.1 l/m2 in 12 Std. -
So, 18.08. 2:00 0.1 l/m2 in 6 Std. Regen
Sa, 17.08. 20:00 0.1 l/m2 in 12 Std. Regen
Sa, 17.08. 14:00 0.1 l/m2 in 6 Std. Regen
Sa, 17.08. 8:00 0.0 l/m2 in 12 Std. -
Sa, 17.08. 2:00 0.0 l/m2 in 6 Std. -
Ortszeit Niederschlagsmenge Niederschlagsart
So, 18.08. 23:00 0.0 l/m2 in 1 Std. -
So, 18.08. 22:50 keine Meldung -
So, 18.08. 22:40 keine Meldung -
So, 18.08. 22:30 0.0 l/m2 in 1 Std. -
So, 18.08. 22:20 keine Meldung -
So, 18.08. 22:10 keine Meldung -
So, 18.08. 22:00 0.0 l/m2 in 1 Std. -
So, 18.08. 21:30 0.0 l/m2 in 1 Std. -
So, 18.08. 21:00 0.0 l/m2 in 1 Std. -
So, 18.08. 20:30 0.0 l/m2 in 1 Std. -
So, 18.08. 20:00 0.8 l/m2 in 1 Std. Regen
Ortszeit Stärke Spitze Richtung
km/h Bft. km/h Grad Sektor
So, 18.08. 20:00 11 2 36 290° W
So, 18.08. 14:00 15 3 31 200° S
So, 18.08. 8:00 18 3 25 180° S
So, 18.08. 2:00 6 1 37 190° S
Sa, 17.08. 20:00 13 3 26 220° SW
Sa, 17.08. 14:00 13 3 24 170° S
Sa, 17.08. 8:00 15 3 22 160° S
Sa, 17.08. 2:00 11 2 18 200° S
Ortszeit Stärke Spitze Richtung
km/h Bft. km/h Grad Sektor
So, 18.08. 23:00 4 1 11 210° SW
So, 18.08. 22:50 4 1 - 210° SW
So, 18.08. 22:40 7 2 - 190° S
So, 18.08. 22:30 7 2 11 170° S
So, 18.08. 22:20 7 2 - 170° S
So, 18.08. 22:10 7 2 - 190° S
So, 18.08. 22:00 9 2 11 160° S
So, 18.08. 21:30 4 1 7 220° SW
So, 18.08. 21:00 7 2 14 330° NW
So, 18.08. 20:30 6 1 15 310° NW
So, 18.08. 20:00 11 2 36 290° W
Ortszeit Untergrenze Bedeckung Gattung
total tief tief mittel hoch
So, 18.08. 20:00 - 0/8 0/8 - - -
So, 18.08. 14:00 3000 m 1/8 1/8 - - -
So, 18.08. 8:00 - 0/8 0/8 - - -
So, 18.08. 2:00 2400 m 8/8 1/8 - - -
Sa, 17.08. 20:00 1500 m 8/8 8/8 - - -
Sa, 17.08. 14:00 1800 m 8/8 1/8 - - -
Sa, 17.08. 8:00 3600 m 8/8 8/8 - - -
Sa, 17.08. 2:00 6300 m 5/8 5/8 - - -
Ortszeit Bedeckungsgrad in Achtel und Wolkenuntergrenze
So, 18.08. 23:00 6(2400m) 8(9000m) 8(10500m)
So, 18.08. 22:50 6(2400m) 8(9000m) 8(10500m)
So, 18.08. 22:40 5(2400m) 7(3300m) 7(4200m)
So, 18.08. 22:30 2(2400m) 5(3300m) 7(9000m)
So, 18.08. 22:20 2(2400m) 5(3300m) 7(9000m)
So, 18.08. 22:10 4(2400m) 4(3300m) 6(9000m)
So, 18.08. 22:00 7(2400m) 8(3600m) 7(3900m)
So, 18.08. 21:30 2(2400m) 5(3600m)
So, 18.08. 21:00 1(2700m) 4(3600m)
So, 18.08. 20:30 2(3900m)
So, 18.08. 20:00 keine Wolken
Ortszeit Luftdruck NN (hPa) Tendenz (hPa in 3 Std.)
So, 18.08. 20:00 1008 + 0,2
So, 18.08. 14:00 1009 - 0,5
So, 18.08. 8:00 1011 + 0,3
So, 18.08. 2:00 1013 - 1,3
Sa, 17.08. 20:00 1013 + 0,3
Sa, 17.08. 14:00 1013 - 0,6
Sa, 17.08. 8:00 1015 + 0,2
Sa, 17.08. 2:00 1016 - 0,9
Ortszeit Luftdruck NN (hPa) Tendenz (hPa in 3 Std.)
So, 18.08. 23:00 1011 + 1,8
So, 18.08. 22:50 1011 keine Meldung
So, 18.08. 22:40 1011 keine Meldung
So, 18.08. 22:30 1011 + 2,3
So, 18.08. 22:20 1011 keine Meldung
So, 18.08. 22:10 1011 keine Meldung
So, 18.08. 22:00 1011 + 3,0
So, 18.08. 21:30 1010 + 1,9
So, 18.08. 21:00 1010 + 1,5
So, 18.08. 20:30 1009 + 1,1
So, 18.08. 20:00 1008 + 0,2
Ortszeit Schneehöhe (cm)
So, 18.08. 20:00 -
So, 18.08. 14:00 -
So, 18.08. 8:00 -
So, 18.08. 2:00 -
Sa, 17.08. 20:00 -
Sa, 17.08. 14:00 -
Sa, 17.08. 8:00 -
Sa, 17.08. 2:00 -
Ortszeit Schneehöhe (cm)
So, 18.08. 23:00 -
So, 18.08. 22:50 -
So, 18.08. 22:40 -
So, 18.08. 22:30 -
So, 18.08. 22:20 -
So, 18.08. 22:10 -
So, 18.08. 22:00 -
So, 18.08. 21:30 -
So, 18.08. 21:00 -
So, 18.08. 20:30 -
So, 18.08. 20:00 -
Link zu dieser Seite / Seite empfehlen

Das Wetter in ...